sensor_id;sensor_type;location;lat;lon;timestamp;pressure;altitude;pressure_sealevel;temperature;humidity
21803;BME280;18591;47.080;22.214;2023-11-19T00:01:26;100049.94;;;7.24;62.84
21803;BME280;18591;47.080;22.214;2023-11-19T00:03:28;100060.63;;;7.24;62.69
21803;BME280;18591;47.080;22.214;2023-11-19T00:05:31;100057.97;;;7.24;62.65
21803;BME280;18591;47.080;22.214;2023-11-19T00:07:33;100058.03;;;7.21;62.37
21803;BME280;18591;47.080;22.214;2023-11-19T00:09:36;100059.94;;;7.14;62.29
21803;BME280;18591;47.080;22.214;2023-11-19T00:11:39;100062.59;;;7.14;62.54
21803;BME280;18591;47.080;22.214;2023-11-19T00:13:42;100064.41;;;7.11;62.54
21803;BME280;18591;47.080;22.214;2023-11-19T00:15:44;100062.63;;;7.11;62.49
21803;BME280;18591;47.080;22.214;2023-11-19T00:17:47;100070.69;;;7.08;62.32
21803;BME280;18591;47.080;22.214;2023-11-19T00:19:51;100064.47;;;7.09;62.33
21803;BME280;18591;47.080;22.214;2023-11-19T00:21:54;100054.69;;;7.07;62.30
21803;BME280;18591;47.080;22.214;2023-11-19T00:23:56;100055.59;;;7.06;62.39
21803;BME280;18591;47.080;22.214;2023-11-19T00:26:00;100052.09;;;7.01;62.35
21803;BME280;18591;47.080;22.214;2023-11-19T00:28:02;100045.91;;;6.98;61.90
21803;BME280;18591;47.080;22.214;2023-11-19T00:30:06;100050.41;;;6.96;62.44
21803;BME280;18591;47.080;22.214;2023-11-19T00:32:10;100028.25;;;6.90;62.26
21803;BME280;18591;47.080;22.214;2023-11-19T00:34:14;100034.38;;;6.95;61.93
21803;BME280;18591;47.080;22.214;2023-11-19T00:36:17;100037.97;;;6.94;62.48
21803;BME280;18591;47.080;22.214;2023-11-19T00:38:19;100041.53;;;6.94;62.21
21803;BME280;18591;47.080;22.214;2023-11-19T00:40:22;100048.78;;;6.83;61.83
21803;BME280;18591;47.080;22.214;2023-11-19T00:42:25;100056.88;;;6.80;62.16
21803;BME280;18591;47.080;22.214;2023-11-19T00:44:28;100055.00;;;6.87;61.95
21803;BME280;18591;47.080;22.214;2023-11-19T00:46:34;100054.13;;;6.83;61.81
21803;BME280;18591;47.080;22.214;2023-11-19T00:48:42;100060.50;;;6.74;62.45
21803;BME280;18591;47.080;22.214;2023-11-19T00:50:56;100053.44;;;6.72;61.75
21803;BME280;18591;47.080;22.214;2023-11-19T00:53:02;100041.75;;;6.78;61.38
21803;BME280;18591;47.080;22.214;2023-11-19T00:58:11;100032.06;;;6.70;61.50
21803;BME280;18591;47.080;22.214;2023-11-19T01:00:13;100031.19;;;6.70;61.06
21803;BME280;18591;47.080;22.214;2023-11-19T01:02:26;100022.38;;;6.66;61.55
21803;BME280;18591;47.080;22.214;2023-11-19T01:04:34;100026.03;;;6.58;60.89
21803;BME280;18591;47.080;22.214;2023-11-19T01:06:37;100036.75;;;6.54;61.00
21803;BME280;18591;47.080;22.214;2023-11-19T01:08:50;100042.25;;;6.44;61.13
21803;BME280;18591;47.080;22.214;2023-11-19T01:10:52;100044.13;;;6.37;61.34
21803;BME280;18591;47.080;22.214;2023-11-19T01:12:55;100045.88;;;6.37;61.83
21803;BME280;18591;47.080;22.214;2023-11-19T01:14:57;100045.88;;;6.40;61.47
21803;BME280;18591;47.080;22.214;2023-11-19T01:17:00;100044.00;;;6.46;61.72
21803;BME280;18591;47.080;22.214;2023-11-19T01:19:03;100046.59;;;6.52;61.93
21803;BME280;18591;47.080;22.214;2023-11-19T01:21:18;100045.59;;;6.60;61.49
21803;BME280;18591;47.080;22.214;2023-11-19T01:23:21;100049.94;;;6.65;61.49
21803;BME280;18591;47.080;22.214;2023-11-19T01:25:23;100044.59;;;6.67;61.04
21803;BME280;18591;47.080;22.214;2023-11-19T01:27:51;100045.50;;;6.66;60.95
21803;BME280;18591;47.080;22.214;2023-11-19T01:29:53;100033.97;;;6.64;61.11
21803;BME280;18591;47.080;22.214;2023-11-19T01:31:57;100033.91;;;6.68;60.98
21803;BME280;18591;47.080;22.214;2023-11-19T01:33:59;100038.44;;;6.63;60.91
21803;BME280;18591;47.080;22.214;2023-11-19T01:36:02;100037.47;;;6.67;61.30
21803;BME280;18591;47.080;22.214;2023-11-19T01:38:06;100028.56;;;6.68;61.00
21803;BME280;18591;47.080;22.214;2023-11-19T01:40:11;100019.69;;;6.65;60.96
21803;BME280;18591;47.080;22.214;2023-11-19T01:42:14;100027.69;;;6.66;60.61
21803;BME280;18591;47.080;22.214;2023-11-19T01:44:17;100018.81;;;6.64;60.55
21803;BME280;18591;47.080;22.214;2023-11-19T01:46:20;100021.50;;;6.64;60.43
21803;BME280;18591;47.080;22.214;2023-11-19T01:48:22;100013.53;;;6.61;60.68
21803;BME280;18591;47.080;22.214;2023-11-19T01:50:25;100016.22;;;6.61;60.34
21803;BME280;18591;47.080;22.214;2023-11-19T01:52:29;100013.59;;;6.58;60.56
21803;BME280;18591;47.080;22.214;2023-11-19T01:54:31;100014.56;;;6.51;60.53
21803;BME280;18591;47.080;22.214;2023-11-19T01:56:36;100018.19;;;6.47;60.34
21803;BME280;18591;47.080;22.214;2023-11-19T01:58:40;100014.69;;;6.43;60.47
21803;BME280;18591;47.080;22.214;2023-11-19T02:00:44;100020.94;;;6.41;60.52
21803;BME280;18591;47.080;22.214;2023-11-19T02:02:47;100023.66;;;6.38;60.62
21803;BME280;18591;47.080;22.214;2023-11-19T02:04:51;100032.53;;;6.38;60.78
21803;BME280;18591;47.080;22.214;2023-11-19T02:06:56;100026.38;;;6.33;60.46
21803;BME280;18591;47.080;22.214;2023-11-19T02:09:00;100020.16;;;6.31;60.49
21803;BME280;18591;47.080;22.214;2023-11-19T02:11:04;100023.75;;;6.28;60.47
21803;BME280;18591;47.080;22.214;2023-11-19T02:13:14;100025.59;;;6.25;60.73
21803;BME280;18591;47.080;22.214;2023-11-19T02:15:18;100030.16;;;6.14;60.94
21803;BME280;18591;47.080;22.214;2023-11-19T02:17:28;100026.63;;;6.13;60.85
21803;BME280;18591;47.080;22.214;2023-11-19T02:19:31;100030.13;;;6.18;60.68
21803;BME280;18591;47.080;22.214;2023-11-19T02:21:34;100028.38;;;6.17;60.74
21803;BME280;18591;47.080;22.214;2023-11-19T02:23:43;100035.44;;;6.18;60.57
21803;BME280;18591;47.080;22.214;2023-11-19T02:28:21;100040.00;;;6.12;60.57
21803;BME280;18591;47.080;22.214;2023-11-19T02:30:24;100033.00;;;6.01;61.03
21803;BME280;18591;47.080;22.214;2023-11-19T02:32:31;100030.34;;;6.01;60.71
21803;BME280;18591;47.080;22.214;2023-11-19T02:34:33;100023.22;;;6.00;60.78
21803;BME280;18591;47.080;22.214;2023-11-19T02:36:36;100022.38;;;5.97;60.76
21803;BME280;18591;47.080;22.214;2023-11-19T02:38:38;100016.19;;;5.96;61.22
21803;BME280;18591;47.080;22.214;2023-11-19T02:40:41;100014.41;;;5.95;61.09
21803;BME280;18591;47.080;22.214;2023-11-19T02:42:44;100015.31;;;5.94;61.05
21803;BME280;18591;47.080;22.214;2023-11-19T02:44:46;100008.19;;;5.92;60.89
21803;BME280;18591;47.080;22.214;2023-11-19T02:46:50;100003.72;;;5.95;60.88
21803;BME280;18591;47.080;22.214;2023-11-19T02:48:53;100007.31;;;5.89;60.94
21803;BME280;18591;47.080;22.214;2023-11-19T02:50:56;100005.53;;;5.90;60.89
21803;BME280;18591;47.080;22.214;2023-11-19T02:53:00;100009.09;;;5.89;60.59
21803;BME280;18591;47.080;22.214;2023-11-19T02:55:03;100006.44;;;5.89;60.67
21803;BME280;18591;47.080;22.214;2023-11-19T02:57:11;100008.19;;;5.92;60.75
21803;BME280;18591;47.080;22.214;2023-11-19T02:59:18;100010.03;;;5.86;60.37
21803;BME280;18591;47.080;22.214;2023-11-19T03:01:29;100003.81;;;5.84;60.80
21803;BME280;18591;47.080;22.214;2023-11-19T03:03:33;99993.25;;;5.78;60.82
21803;BME280;18591;47.080;22.214;2023-11-19T03:05:40;99995.91;;;5.75;60.84
21803;BME280;18591;47.080;22.214;2023-11-19T03:07:43;99999.44;;;5.77;60.49
21803;BME280;18591;47.080;22.214;2023-11-19T03:09:46;99993.16;;;5.83;60.83
21803;BME280;18591;47.080;22.214;2023-11-19T03:11:48;99988.84;;;5.73;60.77
21803;BME280;18591;47.080;22.214;2023-11-19T03:13:51;99999.50;;;5.74;61.16
21803;BME280;18591;47.080;22.214;2023-11-19T03:15:54;100003.25;;;5.56;60.97
21803;BME280;18591;47.080;22.214;2023-11-19T03:17:57;99998.75;;;5.63;61.20
21803;BME280;18591;47.080;22.214;2023-11-19T03:20:00;99989.78;;;5.67;60.86
21803;BME280;18591;47.080;22.214;2023-11-19T03:22:03;99980.91;;;5.65;60.97
21803;BME280;18591;47.080;22.214;2023-11-19T03:24:06;99983.59;;;5.65;61.15
21803;BME280;18591;47.080;22.214;2023-11-19T03:26:12;99977.38;;;5.64;60.82
21803;BME280;18591;47.080;22.214;2023-11-19T03:28:15;99975.59;;;5.68;60.97
21803;BME280;18591;47.080;22.214;2023-11-19T03:30:18;99986.28;;;5.63;60.79
21803;BME280;18591;47.080;22.214;2023-11-19T03:32:21;99976.50;;;5.64;60.73
21803;BME280;18591;47.080;22.214;2023-11-19T03:34:23;99961.38;;;5.64;60.79
21803;BME280;18591;47.080;22.214;2023-11-19T03:36:32;99961.44;;;5.60;60.27
21803;BME280;18591;47.080;22.214;2023-11-19T03:38:34;99963.19;;;5.62;60.49
21803;BME280;18591;47.080;22.214;2023-11-19T03:40:38;99972.13;;;5.58;60.66
21803;BME280;18591;47.080;22.214;2023-11-19T03:42:41;99977.53;;;5.49;60.29
21803;BME280;18591;47.080;22.214;2023-11-19T03:44:43;99981.97;;;5.52;60.46
21803;BME280;18591;47.080;22.214;2023-11-19T03:46:46;99981.16;;;5.43;60.47
21803;BME280;18591;47.080;22.214;2023-11-19T03:48:50;99975.78;;;5.48;60.70
21803;BME280;18591;47.080;22.214;2023-11-19T03:50:52;99974.09;;;5.42;60.84
21803;BME280;18591;47.080;22.214;2023-11-19T03:52:54;99967.91;;;5.34;60.99
21803;BME280;18591;47.080;22.214;2023-11-19T03:54:57;99961.78;;;5.28;61.23
21803;BME280;18591;47.080;22.214;2023-11-19T03:57:00;99958.19;;;5.32;61.22
21803;BME280;18591;47.080;22.214;2023-11-19T03:59:05;99962.59;;;5.37;61.01
21803;BME280;18591;47.080;22.214;2023-11-19T04:01:13;99969.75;;;5.32;61.31
21803;BME280;18591;47.080;22.214;2023-11-19T04:03:16;99969.78;;;5.26;61.48
21803;BME280;18591;47.080;22.214;2023-11-19T04:05:18;99974.16;;;5.33;61.48
21803;BME280;18591;47.080;22.214;2023-11-19T04:07:21;99981.25;;;5.34;60.82
21803;BME280;18591;47.080;22.214;2023-11-19T04:09:24;99972.31;;;5.40;61.09
21803;BME280;18591;47.080;22.214;2023-11-19T04:11:27;99971.50;;;5.33;61.07
21803;BME280;18591;47.080;22.214;2023-11-19T04:13:29;99967.97;;;5.31;60.84
21803;BME280;18591;47.080;22.214;2023-11-19T04:15:32;99958.25;;;5.27;60.76
21803;BME280;18591;47.080;22.214;2023-11-19T04:17:34;99964.34;;;5.38;60.82
21803;BME280;18591;47.080;22.214;2023-11-19T04:19:38;99958.16;;;5.35;60.53
21803;BME280;18591;47.080;22.214;2023-11-19T04:21:41;99950.09;;;5.41;60.54
21803;BME280;18591;47.080;22.214;2023-11-19T04:23:44;99943.06;;;5.34;60.54
21803;BME280;18591;47.080;22.214;2023-11-19T04:25:46;99942.22;;;5.30;60.51
21803;BME280;18591;47.080;22.214;2023-11-19T04:27:49;99932.44;;;5.31;60.68
21803;BME280;18591;47.080;22.214;2023-11-19T04:29:52;99928.91;;;5.30;60.55
21803;BME280;18591;47.080;22.214;2023-11-19T04:31:56;99925.34;;;5.31;60.29
21803;BME280;18591;47.080;22.214;2023-11-19T04:33:59;99919.13;;;5.29;60.07
21803;BME280;18591;47.080;22.214;2023-11-19T04:36:02;99914.72;;;5.27;60.37
21803;BME280;18591;47.080;22.214;2023-11-19T04:38:05;99915.59;;;5.29;60.46
21803;BME280;18591;47.080;22.214;2023-11-19T04:40:08;99918.25;;;5.29;60.16
21803;BME280;18591;47.080;22.214;2023-11-19T04:42:12;99919.16;;;5.28;59.91
21803;BME280;18591;47.080;22.214;2023-11-19T04:44:15;99925.41;;;5.23;60.11
21803;BME280;18591;47.080;22.214;2023-11-19T04:46:18;99914.75;;;5.23;59.72
21803;BME280;18591;47.080;22.214;2023-11-19T04:48:21;99905.94;;;5.20;60.24
21803;BME280;18591;47.080;22.214;2023-11-19T04:50:24;99913.03;;;5.19;59.89
21803;BME280;18591;47.080;22.214;2023-11-19T04:52:29;99924.56;;;5.21;60.27
21803;BME280;18591;47.080;22.214;2023-11-19T04:54:31;99930.69;;;5.27;60.06
21803;BME280;18591;47.080;22.214;2023-11-19T04:56:35;99938.81;;;5.19;60.51
21803;BME280;18591;47.080;22.214;2023-11-19T04:58:39;99932.59;;;5.15;60.66
21803;BME280;18591;47.080;22.214;2023-11-19T05:00:41;99935.25;;;5.17;60.57
21803;BME280;18591;47.080;22.214;2023-11-19T05:02:44;99937.06;;;5.15;60.11
21803;BME280;18591;47.080;22.214;2023-11-19T05:04:47;99938.16;;;4.94;60.32
21803;BME280;18591;47.080;22.214;2023-11-19T05:06:51;99935.38;;;5.06;60.34
21803;BME280;18591;47.080;22.214;2023-11-19T05:08:54;99941.53;;;5.08;60.27
21803;BME280;18591;47.080;22.214;2023-11-19T05:10:56;99944.19;;;5.11;60.24
21803;BME280;18591;47.080;22.214;2023-11-19T05:12:59;99936.22;;;5.11;60.39
21803;BME280;18591;47.080;22.214;2023-11-19T05:15:02;99936.34;;;4.94;60.66
21803;BME280;18591;47.080;22.214;2023-11-19T05:17:05;99944.28;;;5.04;60.46
21803;BME280;18591;47.080;22.214;2023-11-19T05:19:07;99949.59;;;5.02;60.46
21803;BME280;18591;47.080;22.214;2023-11-19T05:21:11;99945.16;;;5.02;60.73
21803;BME280;18591;47.080;22.214;2023-11-19T05:23:13;99950.66;;;4.84;61.15
21803;BME280;18591;47.080;22.214;2023-11-19T05:25:19;99964.75;;;4.92;61.21
21803;BME280;18591;47.080;22.214;2023-11-19T05:27:22;99975.38;;;4.95;61.21
21803;BME280;18591;47.080;22.214;2023-11-19T05:29:26;99966.53;;;4.95;61.54
21803;BME280;18591;47.080;22.214;2023-11-19T05:31:29;99968.31;;;4.94;61.23
21803;BME280;18591;47.080;22.214;2023-11-19T05:33:34;99959.44;;;4.92;61.71
21803;BME280;18591;47.080;22.214;2023-11-19T05:35:37;99956.81;;;4.89;61.59
21803;BME280;18591;47.080;22.214;2023-11-19T05:37:40;99957.75;;;4.84;61.51
21803;BME280;18591;47.080;22.214;2023-11-19T05:39:44;99960.38;;;4.88;61.47
21803;BME280;18591;47.080;22.214;2023-11-19T05:41:47;99961.22;;;4.92;61.91
21803;BME280;18591;47.080;22.214;2023-11-19T05:43:49;99958.56;;;4.90;61.81
21803;BME280;18591;47.080;22.214;2023-11-19T05:45:52;99959.41;;;4.97;61.43
21803;BME280;18591;47.080;22.214;2023-11-19T05:47:54;99952.41;;;4.87;62.02
21803;BME280;18591;47.080;22.214;2023-11-19T05:49:57;99951.44;;;4.94;61.80
21803;BME280;18591;47.080;22.214;2023-11-19T05:52:00;99943.41;;;5.00;61.89
21803;BME280;18591;47.080;22.214;2023-11-19T05:54:09;99946.06;;;5.00;61.85
21803;BME280;18591;47.080;22.214;2023-11-19T05:56:12;99954.94;;;5.00;61.42
21803;BME280;18591;47.080;22.214;2023-11-19T05:58:14;99955.84;;;4.99;61.60
21803;BME280;18591;47.080;22.214;2023-11-19T06:00:17;99954.94;;;5.04;61.55
21803;BME280;18591;47.080;22.214;2023-11-19T06:02:20;99958.50;;;5.01;62.17
21803;BME280;18591;47.080;22.214;2023-11-19T06:04:22;99950.44;;;5.07;61.83
21803;BME280;18591;47.080;22.214;2023-11-19T06:06:25;99951.34;;;5.06;61.68
21803;BME280;18591;47.080;22.214;2023-11-19T06:08:27;99938.91;;;5.07;61.77
21803;BME280;18591;47.080;22.214;2023-11-19T06:10:30;99938.88;;;5.11;61.73
21803;BME280;18591;47.080;22.214;2023-11-19T06:12:35;99942.38;;;5.13;61.77
21803;BME280;18591;47.080;22.214;2023-11-19T06:14:40;99942.44;;;5.07;62.17
21803;BME280;18591;47.080;22.214;2023-11-19T06:16:43;99955.69;;;5.16;61.70
21803;BME280;18591;47.080;22.214;2023-11-19T06:18:46;99956.56;;;5.17;61.79
21803;BME280;18591;47.080;22.214;2023-11-19T06:20:49;99951.22;;;5.20;61.81
21803;BME280;18591;47.080;22.214;2023-11-19T06:22:51;99947.66;;;5.18;61.76
21803;BME280;18591;47.080;22.214;2023-11-19T06:24:54;99943.25;;;5.15;62.51
21803;BME280;18591;47.080;22.214;2023-11-19T06:26:57;99951.25;;;5.17;62.14
21803;BME280;18591;47.080;22.214;2023-11-19T06:29:00;99949.41;;;5.22;62.08
21803;BME280;18591;47.080;22.214;2023-11-19T06:31:03;99948.53;;;5.20;62.33
21803;BME280;18591;47.080;22.214;2023-11-19T06:33:06;99937.94;;;5.15;62.78
21803;BME280;18591;47.080;22.214;2023-11-19T06:35:09;99942.34;;;5.18;62.72
21803;BME280;18591;47.080;22.214;2023-11-19T06:37:12;99953.84;;;5.24;62.55
21803;BME280;18591;47.080;22.214;2023-11-19T06:39:14;99956.53;;;5.18;62.82
21803;BME280;18591;47.080;22.214;2023-11-19T06:41:17;99956.53;;;5.18;62.92
21803;BME280;18591;47.080;22.214;2023-11-19T06:43:19;99958.31;;;5.19;62.94
21803;BME280;18591;47.080;22.214;2023-11-19T06:45:22;99963.69;;;5.16;62.88
21803;BME280;18591;47.080;22.214;2023-11-19T06:47:28;99965.53;;;5.07;63.31
21803;BME280;18591;47.080;22.214;2023-11-19T06:49:30;99960.09;;;5.19;62.82
21803;BME280;18591;47.080;22.214;2023-11-19T06:51:33;99959.16;;;5.23;63.17
21803;BME280;18591;47.080;22.214;2023-11-19T06:53:36;99954.63;;;5.33;62.64
21803;BME280;18591;47.080;22.214;2023-11-19T06:55:38;99955.44;;;5.39;62.63
21803;BME280;18591;47.080;22.214;2023-11-19T06:57:41;99955.50;;;5.32;62.48
21803;BME280;18591;47.080;22.214;2023-11-19T06:59:43;99963.47;;;5.36;62.73
21803;BME280;18591;47.080;22.214;2023-11-19T07:01:46;99972.38;;;5.35;62.78
21803;BME280;18591;47.080;22.214;2023-11-19T07:03:48;99978.53;;;5.39;62.49
21803;BME280;18591;47.080;22.214;2023-11-19T07:05:51;99982.03;;;5.44;62.79
21803;BME280;18591;47.080;22.214;2023-11-19T07:07:54;99991.81;;;5.43;62.63
21803;BME280;18591;47.080;22.214;2023-11-19T07:09:56;99992.69;;;5.44;62.61
21803;BME280;18591;47.080;22.214;2023-11-19T07:11:59;99995.38;;;5.45;62.35
21803;BME280;18591;47.080;22.214;2023-11-19T07:14:04;99990.00;;;5.50;62.48
21803;BME280;18591;47.080;22.214;2023-11-19T07:16:07;99990.06;;;5.41;62.79
21803;BME280;18591;47.080;22.214;2023-11-19T07:18:12;99990.91;;;5.46;62.54
21803;BME280;18591;47.080;22.214;2023-11-19T07:20:14;99988.25;;;5.48;62.57
21803;BME280;18591;47.080;22.214;2023-11-19T07:22:18;99986.53;;;5.40;62.92
21803;BME280;18591;47.080;22.214;2023-11-19T07:24:20;99982.03;;;5.45;62.62
21803;BME280;18591;47.080;22.214;2023-11-19T07:26:23;99975.78;;;5.48;63.16
21803;BME280;18591;47.080;22.214;2023-11-19T07:28:26;99974.84;;;5.52;62.59
21803;BME280;18591;47.080;22.214;2023-11-19T07:30:31;99980.13;;;5.58;62.62
21803;BME280;18591;47.080;22.214;2023-11-19T07:32:33;99987.28;;;5.52;63.04
21803;BME280;18591;47.080;22.214;2023-11-19T07:34:36;99989.03;;;5.56;62.85
21803;BME280;18591;47.080;22.214;2023-11-19T07:36:38;99982.84;;;5.55;63.15
21803;BME280;18591;47.080;22.214;2023-11-19T07:38:41;99981.00;;;5.57;62.64
21803;BME280;18591;47.080;22.214;2023-11-19T07:40:44;99993.50;;;5.55;63.03
21803;BME280;18591;47.080;22.214;2023-11-19T07:42:50;99989.88;;;5.61;62.83
21803;BME280;18591;47.080;22.214;2023-11-19T07:44:52;99996.06;;;5.61;63.22
21803;BME280;18591;47.080;22.214;2023-11-19T07:46:57;99997.81;;;5.65;62.90
21803;BME280;18591;47.080;22.214;2023-11-19T07:49:00;100012.88;;;5.70;63.10
21803;BME280;18591;47.080;22.214;2023-11-19T07:51:05;100005.75;;;5.70;63.60
21803;BME280;18591;47.080;22.214;2023-11-19T07:53:07;99996.03;;;5.66;63.50
21803;BME280;18591;47.080;22.214;2023-11-19T07:55:11;99988.91;;;5.66;63.42
21803;BME280;18591;47.080;22.214;2023-11-19T07:57:14;99995.06;;;5.73;62.99
21803;BME280;18591;47.080;22.214;2023-11-19T07:59:16;99998.66;;;5.69;63.10
21803;BME280;18591;47.080;22.214;2023-11-19T08:01:19;99988.00;;;5.71;63.16
21803;BME280;18591;47.080;22.214;2023-11-19T08:03:21;99991.50;;;5.76;63.47
21803;BME280;18591;47.080;22.214;2023-11-19T08:05:24;99987.00;;;5.81;63.50
21803;BME280;18591;47.080;22.214;2023-11-19T08:07:27;99995.00;;;5.79;63.08
21803;BME280;18591;47.080;22.214;2023-11-19T08:09:30;99992.38;;;5.76;62.78
21803;BME280;18591;47.080;22.214;2023-11-19T08:11:33;99988.78;;;5.77;63.06
21803;BME280;18591;47.080;22.214;2023-11-19T08:13:36;99997.66;;;5.81;63.29
21803;BME280;18591;47.080;22.214;2023-11-19T08:15:38;99992.19;;;5.90;63.03
21803;BME280;18591;47.080;22.214;2023-11-19T08:17:41;99992.13;;;5.98;62.86
21803;BME280;18591;47.080;22.214;2023-11-19T08:19:44;99993.00;;;6.01;63.32
21803;BME280;18591;47.080;22.214;2023-11-19T08:21:47;99988.53;;;6.02;63.49
21803;BME280;18591;47.080;22.214;2023-11-19T08:23:49;99997.41;;;6.04;63.48
21803;BME280;18591;47.080;22.214;2023-11-19T08:25:52;99994.72;;;6.05;63.24
21803;BME280;18591;47.080;22.214;2023-11-19T08:27:55;100005.28;;;6.15;63.38
21803;BME280;18591;47.080;22.214;2023-11-19T08:29:57;99999.97;;;6.12;63.96
21803;BME280;18591;47.080;22.214;2023-11-19T08:32:01;99996.41;;;6.14;64.10
21803;BME280;18591;47.080;22.214;2023-11-19T08:34:05;99997.19;;;6.21;64.14
21803;BME280;18591;47.080;22.214;2023-11-19T08:36:17;100006.25;;;6.07;64.39
21803;BME280;18591;47.080;22.214;2023-11-19T08:38:19;100007.91;;;6.18;64.06
21803;BME280;18591;47.080;22.214;2023-11-19T08:40:25;99998.06;;;6.21;63.72
21803;BME280;18591;47.080;22.214;2023-11-19T08:42:31;99992.63;;;6.29;63.95
21803;BME280;18591;47.080;22.214;2023-11-19T08:44:34;99986.47;;;6.25;63.99
21803;BME280;18591;47.080;22.214;2023-11-19T08:46:36;99983.69;;;6.35;64.08
21803;BME280;18591;47.080;22.214;2023-11-19T08:48:39;99988.97;;;6.38;63.90
21803;BME280;18591;47.080;22.214;2023-11-19T08:50:41;99977.41;;;6.37;64.16
21803;BME280;18591;47.080;22.214;2023-11-19T08:52:44;99979.16;;;6.40;64.13
21803;BME280;18591;47.080;22.214;2023-11-19T08:54:46;99975.53;;;6.44;63.99
21803;BME280;18591;47.080;22.214;2023-11-19T08:56:49;99967.41;;;6.51;63.47
21803;BME280;18591;47.080;22.214;2023-11-19T08:58:52;99965.69;;;6.47;63.45
21803;BME280;18591;47.080;22.214;2023-11-19T09:00:55;99955.94;;;6.45;63.89
21803;BME280;18591;47.080;22.214;2023-11-19T09:02:58;99970.13;;;6.48;63.72
21803;BME280;18591;47.080;22.214;2023-11-19T09:05:01;99955.84;;;6.52;63.79
21803;BME280;18591;47.080;22.214;2023-11-19T09:07:04;99940.66;;;6.56;64.03
21803;BME280;18591;47.080;22.214;2023-11-19T09:09:06;99941.47;;;6.60;63.88
21803;BME280;18591;47.080;22.214;2023-11-19T09:11:09;99941.50;;;6.58;63.50
21803;BME280;18591;47.080;22.214;2023-11-19T09:13:11;99931.63;;;6.63;63.79
21803;BME280;18591;47.080;22.214;2023-11-19T09:15:14;99929.78;;;6.67;63.81
21803;BME280;18591;47.080;22.214;2023-11-19T09:17:17;99926.13;;;6.74;63.69
21803;BME280;18591;47.080;22.214;2023-11-19T09:19:20;99917.13;;;6.80;63.33
21803;BME280;18591;47.080;22.214;2023-11-19T09:21:23;99911.66;;;6.87;63.64
21803;BME280;18591;47.080;22.214;2023-11-19T09:23:25;99917.03;;;6.84;63.52
21803;BME280;18591;47.080;22.214;2023-11-19T09:25:30;99907.16;;;6.89;63.44
21803;BME280;18591;47.080;22.214;2023-11-19T09:27:46;99901.75;;;6.94;63.50
21803;BME280;18591;47.080;22.214;2023-11-19T09:29:49;99912.31;;;6.98;63.67
21803;BME280;18591;47.080;22.214;2023-11-19T09:31:57;99939.03;;;6.98;63.41
21803;BME280;18591;47.080;22.214;2023-11-19T09:33:59;99946.91;;;7.06;63.21
21803;BME280;18591;47.080;22.214;2023-11-19T09:36:02;99957.59;;;7.09;63.42
21803;BME280;18591;47.080;22.214;2023-11-19T09:38:05;99955.72;;;7.13;63.30
21803;BME280;18591;47.080;22.214;2023-11-19T09:40:08;99938.69;;;7.18;63.52
21803;BME280;18591;47.080;22.214;2023-11-19T09:42:12;99949.44;;;7.15;63.63
21803;BME280;18591;47.080;22.214;2023-11-19T09:44:14;99941.38;;;7.18;63.53
21803;BME280;18591;47.080;22.214;2023-11-19T09:46:21;99931.41;;;7.28;63.56
21803;BME280;18591;47.080;22.214;2023-11-19T09:48:26;99924.16;;;7.35;63.26
21803;BME280;18591;47.080;22.214;2023-11-19T09:50:29;99902.78;;;7.35;62.97
21803;BME280;18591;47.080;22.214;2023-11-19T09:52:33;99892.19;;;7.29;62.89
21803;BME280;18591;47.080;22.214;2023-11-19T09:54:35;99879.56;;;7.37;62.51
21803;BME280;18591;47.080;22.214;2023-11-19T09:56:38;99877.81;;;7.36;62.27
21803;BME280;18591;47.080;22.214;2023-11-19T09:58:41;99884.97;;;7.34;62.30
21803;BME280;18591;47.080;22.214;2023-11-19T10:00:44;99890.28;;;7.35;62.31
21803;BME280;18591;47.080;22.214;2023-11-19T10:02:56;99892.91;;;7.38;61.94
21803;BME280;18591;47.080;22.214;2023-11-19T10:05:04;99889.31;;;7.39;62.32
21803;BME280;18591;47.080;22.214;2023-11-19T10:07:08;99875.13;;;7.36;62.09
21803;BME280;18591;47.080;22.214;2023-11-19T10:09:12;99869.78;;;7.36;62.18
21803;BME280;18591;47.080;22.214;2023-11-19T10:11:17;99868.75;;;7.43;61.91
21803;BME280;18591;47.080;22.214;2023-11-19T10:13:26;99877.50;;;7.50;62.24
21803;BME280;18591;47.080;22.214;2023-11-19T10:15:36;99879.25;;;7.52;62.36
21803;BME280;18591;47.080;22.214;2023-11-19T10:17:38;99888.31;;;7.45;61.83
21803;BME280;18591;47.080;22.214;2023-11-19T10:19:41;99892.81;;;7.43;61.38
21803;BME280;18591;47.080;22.214;2023-11-19T10:21:45;99884.06;;;7.35;61.36
21803;BME280;18591;47.080;22.214;2023-11-19T10:25:53;99863.41;;;7.43;61.16
21803;BME280;18591;47.080;22.214;2023-11-19T10:27:56;99863.50;;;7.37;61.24
21803;BME280;18591;47.080;22.214;2023-11-19T10:30:00;99872.38;;;7.39;61.27
21803;BME280;18591;47.080;22.214;2023-11-19T10:32:03;99885.59;;;7.48;61.56
21803;BME280;18591;47.080;22.214;2023-11-19T10:34:26;99885.75;;;7.40;62.05
21803;BME280;18591;47.080;22.214;2023-11-19T10:36:39;99887.25;;;7.52;61.99
21803;BME280;18591;47.080;22.214;2023-11-19T10:38:56;99891.72;;;7.53;61.49
21803;BME280;18591;47.080;22.214;2023-11-19T10:40:59;99896.94;;;7.59;61.68
21803;BME280;18591;47.080;22.214;2023-11-19T10:43:02;99904.88;;;7.62;61.86
21803;BME280;18591;47.080;22.214;2023-11-19T10:45:21;99887.25;;;7.54;61.69
21803;BME280;18591;47.080;22.214;2023-11-19T10:47:25;99875.53;;;7.61;61.21
21803;BME280;18591;47.080;22.214;2023-11-19T10:49:30;99880.66;;;7.70;61.49
21803;BME280;18591;47.080;22.214;2023-11-19T10:51:33;99886.84;;;7.74;61.75
21803;BME280;18591;47.080;22.214;2023-11-19T10:53:37;99895.72;;;7.76;61.67
21803;BME280;18591;47.080;22.214;2023-11-19T10:55:47;99894.81;;;7.75;61.56
21803;BME280;18591;47.080;22.214;2023-11-19T10:57:50;99899.19;;;7.81;61.63
21803;BME280;18591;47.080;22.214;2023-11-19T10:59:55;99892.06;;;7.80;61.29
21803;BME280;18591;47.080;22.214;2023-11-19T11:02:07;99901.97;;;7.75;61.37